sensor_id;sensor_type;location;lat;lon;timestamp;P1;durP1;ratioP1;P2;durP2;ratioP2
9827;SDS011;4953;48.952;9.442;2022-12-07T05:01:13;18.20;;;11.97;;
9827;SDS011;4953;48.952;9.442;2022-12-07T05:03:41;19.40;;;11.70;;
9827;SDS011;4953;48.952;9.442;2022-12-07T05:06:09;17.37;;;10.77;;
9827;SDS011;4953;48.952;9.442;2022-12-07T05:08:37;18.40;;;11.23;;
9827;SDS011;4953;48.952;9.442;2022-12-07T05:11:04;18.30;;;11.87;;
9827;SDS011;4953;48.952;9.442;2022-12-07T05:13:32;35.20;;;12.27;;
9827;SDS011;4953;48.952;9.442;2022-12-07T05:15:59;16.73;;;9.97;;
9827;SDS011;4953;48.952;9.442;2022-12-07T05:18:28;17.77;;;11.00;;
9827;SDS011;4953;48.952;9.442;2022-12-07T05:20:55;18.57;;;11.67;;
9827;SDS011;4953;48.952;9.442;2022-12-07T05:23:22;17.80;;;10.77;;
9827;SDS011;4953;48.952;9.442;2022-12-07T05:25:49;19.20;;;11.90;;
9827;SDS011;4953;48.952;9.442;2022-12-07T05:28:16;17.00;;;11.17;;
9827;SDS011;4953;48.952;9.442;2022-12-07T05:30:43;18.67;;;11.10;;
9827;SDS011;4953;48.952;9.442;2022-12-07T05:33:10;19.13;;;12.00;;
9827;SDS011;4953;48.952;9.442;2022-12-07T05:35:38;17.10;;;10.97;;
9827;SDS011;4953;48.952;9.442;2022-12-07T05:38:05;19.40;;;11.30;;
9827;SDS011;4953;48.952;9.442;2022-12-07T05:40:32;23.17;;;12.80;;
9827;SDS011;4953;48.952;9.442;2022-12-07T05:42:59;22.20;;;12.00;;
9827;SDS011;4953;48.952;9.442;2022-12-07T05:45:26;21.20;;;12.73;;
9827;SDS011;4953;48.952;9.442;2022-12-07T05:47:53;18.63;;;12.10;;
9827;SDS011;4953;48.952;9.442;2022-12-07T05:50:20;19.80;;;12.53;;
9827;SDS011;4953;48.952;9.442;2022-12-07T05:52:48;19.47;;;12.70;;
9827;SDS011;4953;48.952;9.442;2022-12-07T05:55:15;24.00;;;12.80;;
9827;SDS011;4953;48.952;9.442;2022-12-07T05:57:42;21.50;;;12.73;;
9827;SDS011;4953;48.952;9.442;2022-12-07T06:00:30;19.30;;;11.77;;
9827;SDS011;4953;48.952;9.442;2022-12-07T06:02:56;18.30;;;11.43;;
9827;SDS011;4953;48.952;9.442;2022-12-07T06:05:23;22.20;;;12.90;;
9827;SDS011;4953;48.952;9.442;2022-12-07T06:07:51;23.67;;;13.40;;
9827;SDS011;4953;48.952;9.442;2022-12-07T06:10:18;21.83;;;13.63;;
9827;SDS011;4953;48.952;9.442;2022-12-07T06:12:45;21.30;;;13.10;;
9827;SDS011;4953;48.952;9.442;2022-12-07T06:15:11;18.57;;;12.17;;
9827;SDS011;4953;48.952;9.442;2022-12-07T06:17:39;22.20;;;12.20;;
9827;SDS011;4953;48.952;9.442;2022-12-07T06:20:06;22.77;;;13.63;;
9827;SDS011;4953;48.952;9.442;2022-12-07T06:22:36;20.37;;;12.73;;
9827;SDS011;4953;48.952;9.442;2022-12-07T06:25:04;16.07;;;11.43;;
9827;SDS011;4953;48.952;9.442;2022-12-07T06:27:33;22.13;;;11.80;;
9827;SDS011;4953;48.952;9.442;2022-12-07T06:30:01;21.00;;;12.00;;
9827;SDS011;4953;48.952;9.442;2022-12-07T06:32:31;19.27;;;12.10;;
9827;SDS011;4953;48.952;9.442;2022-12-07T06:34:59;18.40;;;11.50;;
9827;SDS011;4953;48.952;9.442;2022-12-07T06:37:26;18.73;;;11.80;;
9827;SDS011;4953;48.952;9.442;2022-12-07T06:39:53;23.43;;;13.07;;
9827;SDS011;4953;48.952;9.442;2022-12-07T06:42:21;20.87;;;13.07;;
9827;SDS011;4953;48.952;9.442;2022-12-07T06:44:48;20.73;;;12.47;;
9827;SDS011;4953;48.952;9.442;2022-12-07T06:47:15;21.50;;;12.17;;
9827;SDS011;4953;48.952;9.442;2022-12-07T06:49:42;19.97;;;11.73;;
9827;SDS011;4953;48.952;9.442;2022-12-07T06:52:09;17.67;;;12.10;;
9827;SDS011;4953;48.952;9.442;2022-12-07T06:54:36;23.73;;;12.27;;
9827;SDS011;4953;48.952;9.442;2022-12-07T06:57:03;18.57;;;10.90;;
9827;SDS011;4953;48.952;9.442;2022-12-07T06:59:31;17.80;;;11.53;;
9827;SDS011;4953;48.952;9.442;2022-12-07T07:01:58;18.93;;;12.10;;
9827;SDS011;4953;48.952;9.442;2022-12-07T07:04:25;17.53;;;10.73;;
9827;SDS011;4953;48.952;9.442;2022-12-07T07:06:52;19.10;;;11.87;;
9827;SDS011;4953;48.952;9.442;2022-12-07T07:09:19;19.23;;;10.80;;
9827;SDS011;4953;48.952;9.442;2022-12-07T07:11:46;19.03;;;11.30;;
9827;SDS011;4953;48.952;9.442;2022-12-07T07:14:13;19.93;;;10.90;;
9827;SDS011;4953;48.952;9.442;2022-12-07T07:16:45;19.57;;;12.23;;
9827;SDS011;4953;48.952;9.442;2022-12-07T07:19:12;17.03;;;10.43;;
9827;SDS011;4953;48.952;9.442;2022-12-07T07:21:39;18.77;;;11.37;;
9827;SDS011;4953;48.952;9.442;2022-12-07T07:24:06;18.53;;;11.63;;
9827;SDS011;4953;48.952;9.442;2022-12-07T07:26:33;21.40;;;12.63;;
9827;SDS011;4953;48.952;9.442;2022-12-07T07:29:00;17.20;;;10.83;;
9827;SDS011;4953;48.952;9.442;2022-12-07T07:31:27;16.90;;;11.40;;
9827;SDS011;4953;48.952;9.442;2022-12-07T07:33:56;17.17;;;11.43;;
9827;SDS011;4953;48.952;9.442;2022-12-07T07:36:23;16.13;;;10.00;;
9827;SDS011;4953;48.952;9.442;2022-12-07T07:38:50;18.27;;;11.10;;
9827;SDS011;4953;48.952;9.442;2022-12-07T07:41:17;16.80;;;10.87;;
9827;SDS011;4953;48.952;9.442;2022-12-07T07:43:44;17.17;;;9.97;;
9827;SDS011;4953;48.952;9.442;2022-12-07T07:46:11;17.77;;;11.50;;
9827;SDS011;4953;48.952;9.442;2022-12-07T07:48:38;15.63;;;10.40;;
9827;SDS011;4953;48.952;9.442;2022-12-07T07:51:07;20.20;;;11.40;;
9827;SDS011;4953;48.952;9.442;2022-12-07T07:53:35;20.40;;;11.60;;
9827;SDS011;4953;48.952;9.442;2022-12-07T07:56:02;24.93;;;12.80;;
9827;SDS011;4953;48.952;9.442;2022-12-07T07:58:29;17.80;;;11.17;;
9827;SDS011;4953;48.952;9.442;2022-12-07T08:00:56;16.83;;;10.37;;
9827;SDS011;4953;48.952;9.442;2022-12-07T08:03:29;17.27;;;10.93;;
9827;SDS011;4953;48.952;9.442;2022-12-07T08:05:56;17.10;;;11.10;;
9827;SDS011;4953;48.952;9.442;2022-12-07T08:08:25;19.83;;;11.00;;
9827;SDS011;4953;48.952;9.442;2022-12-07T08:10:52;17.00;;;10.63;;
9827;SDS011;4953;48.952;9.442;2022-12-07T08:13:19;18.73;;;10.73;;
9827;SDS011;4953;48.952;9.442;2022-12-07T08:15:47;23.07;;;11.00;;
9827;SDS011;4953;48.952;9.442;2022-12-07T08:18:14;16.90;;;9.60;;
9827;SDS011;4953;48.952;9.442;2022-12-07T08:20:42;17.20;;;11.50;;
9827;SDS011;4953;48.952;9.442;2022-12-07T08:23:09;18.70;;;11.40;;
9827;SDS011;4953;48.952;9.442;2022-12-07T08:25:38;19.63;;;11.50;;
9827;SDS011;4953;48.952;9.442;2022-12-07T08:28:06;21.13;;;12.30;;
9827;SDS011;4953;48.952;9.442;2022-12-07T08:30:33;19.90;;;11.40;;
9827;SDS011;4953;48.952;9.442;2022-12-07T08:33:00;18.10;;;10.60;;
9827;SDS011;4953;48.952;9.442;2022-12-07T08:35:27;14.73;;;10.23;;
9827;SDS011;4953;48.952;9.442;2022-12-07T08:37:54;17.43;;;10.07;;
9827;SDS011;4953;48.952;9.442;2022-12-07T08:40:22;18.83;;;11.30;;
9827;SDS011;4953;48.952;9.442;2022-12-07T08:42:51;14.10;;;8.93;;
9827;SDS011;4953;48.952;9.442;2022-12-07T08:45:18;17.47;;;10.00;;
9827;SDS011;4953;48.952;9.442;2022-12-07T08:47:48;18.10;;;11.97;;
9827;SDS011;4953;48.952;9.442;2022-12-07T08:50:23;16.37;;;10.63;;
9827;SDS011;4953;48.952;9.442;2022-12-07T08:52:51;16.23;;;10.77;;
9827;SDS011;4953;48.952;9.442;2022-12-07T08:55:23;17.93;;;10.80;;
9827;SDS011;4953;48.952;9.442;2022-12-07T08:57:52;18.70;;;10.60;;
9827;SDS011;4953;48.952;9.442;2022-12-07T09:00:19;16.50;;;9.60;;
9827;SDS011;4953;48.952;9.442;2022-12-07T09:02:47;15.73;;;9.17;;
9827;SDS011;4953;48.952;9.442;2022-12-07T09:05:14;14.40;;;9.30;;
9827;SDS011;4953;48.952;9.442;2022-12-07T09:07:41;14.63;;;9.57;;
9827;SDS011;4953;48.952;9.442;2022-12-07T09:10:12;19.73;;;10.27;;
9827;SDS011;4953;48.952;9.442;2022-12-07T09:12:39;16.10;;;11.10;;
9827;SDS011;4953;48.952;9.442;2022-12-07T09:15:08;16.73;;;10.03;;
9827;SDS011;4953;48.952;9.442;2022-12-07T09:17:35;16.93;;;9.80;;
9827;SDS011;4953;48.952;9.442;2022-12-07T09:20:02;16.43;;;9.50;;
9827;SDS011;4953;48.952;9.442;2022-12-07T09:22:31;16.97;;;9.53;;
9827;SDS011;4953;48.952;9.442;2022-12-07T09:24:59;15.60;;;9.17;;
9827;SDS011;4953;48.952;9.442;2022-12-07T09:27:27;14.30;;;8.77;;
9827;SDS011;4953;48.952;9.442;2022-12-07T09:29:54;14.20;;;9.03;;
9827;SDS011;4953;48.952;9.442;2022-12-07T09:32:23;16.63;;;8.77;;
9827;SDS011;4953;48.952;9.442;2022-12-07T09:34:50;19.90;;;9.80;;
9827;SDS011;4953;48.952;9.442;2022-12-07T09:37:17;17.30;;;9.33;;
9827;SDS011;4953;48.952;9.442;2022-12-07T09:39:44;16.00;;;9.00;;
9827;SDS011;4953;48.952;9.442;2022-12-07T09:42:11;18.43;;;8.87;;
9827;SDS011;4953;48.952;9.442;2022-12-07T09:44:55;13.03;;;8.60;;
9827;SDS011;4953;48.952;9.442;2022-12-07T09:47:24;13.13;;;8.00;;
9827;SDS011;4953;48.952;9.442;2022-12-07T09:49:52;12.00;;;7.90;;
9827;SDS011;4953;48.952;9.442;2022-12-07T09:52:25;14.00;;;8.87;;
9827;SDS011;4953;48.952;9.442;2022-12-07T09:54:55;11.43;;;8.17;;
9827;SDS011;4953;48.952;9.442;2022-12-07T09:57:24;17.37;;;9.43;;
9827;SDS011;4953;48.952;9.442;2022-12-07T09:59:56;14.40;;;8.97;;
9827;SDS011;4953;48.952;9.442;2022-12-07T10:02:35;13.37;;;8.53;;
9827;SDS011;4953;48.952;9.442;2022-12-07T10:05:07;15.00;;;9.20;;
9827;SDS011;4953;48.952;9.442;2022-12-07T10:07:41;16.03;;;9.13;;
9827;SDS011;4953;48.952;9.442;2022-12-07T10:10:12;14.90;;;9.53;;
9827;SDS011;4953;48.952;9.442;2022-12-07T10:12:57;12.30;;;8.23;;
9827;SDS011;4953;48.952;9.442;2022-12-07T10:15:46;13.53;;;8.80;;
9827;SDS011;4953;48.952;9.442;2022-12-07T10:18:26;18.40;;;8.60;;
9827;SDS011;4953;48.952;9.442;2022-12-07T10:21:00;14.93;;;8.27;;
9827;SDS011;4953;48.952;9.442;2022-12-07T10:23:36;11.97;;;7.77;;
9827;SDS011;4953;48.952;9.442;2022-12-07T10:26:19;12.87;;;8.50;;
9827;SDS011;4953;48.952;9.442;2022-12-07T10:28:54;11.73;;;8.33;;
9827;SDS011;4953;48.952;9.442;2022-12-07T10:31:22;12.80;;;8.00;;
9827;SDS011;4953;48.952;9.442;2022-12-07T10:33:51;10.73;;;7.47;;
9827;SDS011;4953;48.952;9.442;2022-12-07T10:36:22;11.47;;;7.27;;
9827;SDS011;4953;48.952;9.442;2022-12-07T10:38:52;13.37;;;7.70;;
9827;SDS011;4953;48.952;9.442;2022-12-07T10:41:25;14.93;;;8.30;;
9827;SDS011;4953;48.952;9.442;2022-12-07T10:43:53;41.70;;;22.93;;
9827;SDS011;4953;48.952;9.442;2022-12-07T10:46:29;33.60;;;17.17;;
9827;SDS011;4953;48.952;9.442;2022-12-07T10:49:38;47.80;;;26.13;;
9827;SDS011;4953;48.952;9.442;2022-12-07T10:52:56;32.63;;;14.87;;
9827;SDS011;4953;48.952;9.442;2022-12-07T10:55:47;14.33;;;7.30;;
9827;SDS011;4953;48.952;9.442;2022-12-07T10:59:01;19.83;;;11.73;;
9827;SDS011;4953;48.952;9.442;2022-12-07T11:01:50;10.63;;;6.63;;
9827;SDS011;4953;48.952;9.442;2022-12-07T11:04:33;9.47;;;6.43;;
9827;SDS011;4953;48.952;9.442;2022-12-07T11:07:10;9.00;;;6.10;;
9827;SDS011;4953;48.952;9.442;2022-12-07T11:10:02;14.67;;;7.63;;
9827;SDS011;4953;48.952;9.442;2022-12-07T11:12:41;25.00;;;14.20;;
9827;SDS011;4953;48.952;9.442;2022-12-07T11:15:42;11.70;;;7.13;;
9827;SDS011;4953;48.952;9.442;2022-12-07T11:18:24;11.60;;;6.90;;
9827;SDS011;4953;48.952;9.442;2022-12-07T11:21:00;9.07;;;6.10;;
9827;SDS011;4953;48.952;9.442;2022-12-07T11:23:46;10.63;;;6.40;;
9827;SDS011;4953;48.952;9.442;2022-12-07T11:26:28;9.13;;;5.90;;
9827;SDS011;4953;48.952;9.442;2022-12-07T11:29:24;11.20;;;6.27;;
9827;SDS011;4953;48.952;9.442;2022-12-07T11:32:14;17.63;;;11.10;;
9827;SDS011;4953;48.952;9.442;2022-12-07T11:34:57;12.53;;;6.00;;
9827;SDS011;4953;48.952;9.442;2022-12-07T11:37:36;9.97;;;6.00;;
9827;SDS011;4953;48.952;9.442;2022-12-07T11:40:12;8.97;;;6.57;;
9827;SDS011;4953;48.952;9.442;2022-12-07T11:42:49;11.23;;;7.23;;
9827;SDS011;4953;48.952;9.442;2022-12-07T11:45:26;9.70;;;6.83;;
9827;SDS011;4953;48.952;9.442;2022-12-07T11:47:58;13.10;;;9.20;;
9827;SDS011;4953;48.952;9.442;2022-12-07T11:50:33;11.77;;;7.20;;
9827;SDS011;4953;48.952;9.442;2022-12-07T11:53:09;10.00;;;6.37;;
9827;SDS011;4953;48.952;9.442;2022-12-07T11:55:46;10.17;;;6.63;;
9827;SDS011;4953;48.952;9.442;2022-12-07T11:58:20;11.47;;;7.00;;
9827;SDS011;4953;48.952;9.442;2022-12-07T12:01:09;9.87;;;7.20;;
9827;SDS011;4953;48.952;9.442;2022-12-07T12:03:49;14.00;;;7.50;;
9827;SDS011;4953;48.952;9.442;2022-12-07T12:06:20;11.73;;;6.90;;
9827;SDS011;4953;48.952;9.442;2022-12-07T12:08:50;11.37;;;7.47;;
9827;SDS011;4953;48.952;9.442;2022-12-07T12:11:31;11.73;;;7.40;;
9827;SDS011;4953;48.952;9.442;2022-12-07T12:14:26;14.87;;;7.97;;
9827;SDS011;4953;48.952;9.442;2022-12-07T12:17:25;11.30;;;7.70;;
9827;SDS011;4953;48.952;9.442;2022-12-07T12:20:19;11.27;;;7.67;;
9827;SDS011;4953;48.952;9.442;2022-12-07T12:22:53;14.83;;;7.53;;
9827;SDS011;4953;48.952;9.442;2022-12-07T12:25:29;13.40;;;8.23;;
9827;SDS011;4953;48.952;9.442;2022-12-07T12:28:15;13.83;;;8.43;;
9827;SDS011;4953;48.952;9.442;2022-12-07T12:31:04;18.50;;;9.00;;
9827;SDS011;4953;48.952;9.442;2022-12-07T12:33:35;14.77;;;10.20;;
9827;SDS011;4953;48.952;9.442;2022-12-07T12:36:17;15.40;;;10.07;;
9827;SDS011;4953;48.952;9.442;2022-12-07T12:38:49;16.37;;;8.07;;
9827;SDS011;4953;48.952;9.442;2022-12-07T12:41:53;13.60;;;8.50;;
9827;SDS011;4953;48.952;9.442;2022-12-07T12:47:52;14.17;;;9.67;;
9827;SDS011;4953;48.952;9.442;2022-12-07T12:50:23;11.90;;;8.63;;
9827;SDS011;4953;48.952;9.442;2022-12-07T12:56:00;14.53;;;8.90;;
9827;SDS011;4953;48.952;9.442;2022-12-07T13:01:50;13.70;;;9.13;;
9827;SDS011;4953;48.952;9.442;2022-12-07T13:22:34;14.73;;;9.50;;
9827;SDS011;4953;48.952;9.442;2022-12-07T13:25:10;16.17;;;9.10;;
9827;SDS011;4953;48.952;9.442;2022-12-07T13:27:46;14.80;;;9.70;;
9827;SDS011;4953;48.952;9.442;2022-12-07T13:30:23;18.13;;;10.13;;
9827;SDS011;4953;48.952;9.442;2022-12-07T13:32:55;22.70;;;10.40;;
9827;SDS011;4953;48.952;9.442;2022-12-07T13:35:31;16.97;;;9.40;;
9827;SDS011;4953;48.952;9.442;2022-12-07T13:38:04;14.90;;;8.70;;
9827;SDS011;4953;48.952;9.442;2022-12-07T13:40:42;14.20;;;8.97;;
9827;SDS011;4953;48.952;9.442;2022-12-07T13:43:25;15.33;;;9.93;;
9827;SDS011;4953;48.952;9.442;2022-12-07T13:45:55;16.40;;;10.43;;
9827;SDS011;4953;48.952;9.442;2022-12-07T13:48:30;15.33;;;9.03;;
9827;SDS011;4953;48.952;9.442;2022-12-07T13:51:03;14.30;;;9.53;;
9827;SDS011;4953;48.952;9.442;2022-12-07T13:53:30;15.57;;;9.93;;
9827;SDS011;4953;48.952;9.442;2022-12-07T13:55:58;17.93;;;10.53;;
9827;SDS011;4953;48.952;9.442;2022-12-07T13:58:27;16.03;;;10.30;;
9827;SDS011;4953;48.952;9.442;2022-12-07T14:00:59;18.27;;;10.77;;
9827;SDS011;4953;48.952;9.442;2022-12-07T14:03:28;17.87;;;10.33;;
9827;SDS011;4953;48.952;9.442;2022-12-07T14:06:06;18.63;;;10.10;;
9827;SDS011;4953;48.952;9.442;2022-12-07T14:09:08;14.30;;;8.90;;
9827;SDS011;4953;48.952;9.442;2022-12-07T14:11:45;18.53;;;11.30;;
9827;SDS011;4953;48.952;9.442;2022-12-07T14:14:15;16.60;;;10.10;;
9827;SDS011;4953;48.952;9.442;2022-12-07T14:16:54;16.23;;;10.07;;
9827;SDS011;4953;48.952;9.442;2022-12-07T14:22:30;24.13;;;10.23;;
9827;SDS011;4953;48.952;9.442;2022-12-07T14:27:49;20.13;;;10.43;;
9827;SDS011;4953;48.952;9.442;2022-12-07T14:30:23;17.37;;;10.63;;
9827;SDS011;4953;48.952;9.442;2022-12-07T14:32:53;18.00;;;10.47;;
9827;SDS011;4953;48.952;9.442;2022-12-07T14:35:26;20.33;;;11.47;;
9827;SDS011;4953;48.952;9.442;2022-12-07T14:37:54;21.40;;;11.60;;
9827;SDS011;4953;48.952;9.442;2022-12-07T14:40:22;20.80;;;11.00;;
9827;SDS011;4953;48.952;9.442;2022-12-07T14:42:53;19.07;;;12.03;;
9827;SDS011;4953;48.952;9.442;2022-12-07T14:45:26;17.53;;;10.90;;
9827;SDS011;4953;48.952;9.442;2022-12-07T14:47:52;18.10;;;11.60;;
9827;SDS011;4953;48.952;9.442;2022-12-07T14:50:20;15.77;;;10.80;;
9827;SDS011;4953;48.952;9.442;2022-12-07T14:52:50;22.40;;;10.90;;
9827;SDS011;4953;48.952;9.442;2022-12-07T14:55:23;21.17;;;11.27;;
9827;SDS011;4953;48.952;9.442;2022-12-07T14:57:51;17.83;;;11.03;;
9827;SDS011;4953;48.952;9.442;2022-12-07T15:00:19;18.73;;;11.07;;
9827;SDS011;4953;48.952;9.442;2022-12-07T15:02:49;22.80;;;11.97;;
9827;SDS011;4953;48.952;9.442;2022-12-07T15:05:17;19.07;;;11.40;;
9827;SDS011;4953;48.952;9.442;2022-12-07T15:07:45;23.77;;;13.30;;
9827;SDS011;4953;48.952;9.442;2022-12-07T15:10:15;20.37;;;12.00;;
9827;SDS011;4953;48.952;9.442;2022-12-07T15:12:45;19.57;;;11.83;;
9827;SDS011;4953;48.952;9.442;2022-12-07T15:15:12;18.83;;;10.93;;
9827;SDS011;4953;48.952;9.442;2022-12-07T15:17:40;18.80;;;10.97;;
9827;SDS011;4953;48.952;9.442;2022-12-07T15:20:08;17.40;;;10.50;;
9827;SDS011;4953;48.952;9.442;2022-12-07T15:22:39;25.60;;;11.73;;
9827;SDS011;4953;48.952;9.442;2022-12-07T15:25:08;21.90;;;14.73;;
9827;SDS011;4953;48.952;9.442;2022-12-07T15:27:40;19.53;;;12.80;;
9827;SDS011;4953;48.952;9.442;2022-12-07T15:30:07;23.20;;;13.27;;
9827;SDS011;4953;48.952;9.442;2022-12-07T15:32:35;24.70;;;18.93;;
9827;SDS011;4953;48.952;9.442;2022-12-07T15:35:02;26.63;;;13.43;;
9827;SDS011;4953;48.952;9.442;2022-12-07T15:37:30;21.43;;;13.13;;
9827;SDS011;4953;48.952;9.442;2022-12-07T15:39:57;30.27;;;15.10;;
9827;SDS011;4953;48.952;9.442;2022-12-07T15:42:24;21.87;;;13.87;;
9827;SDS011;4953;48.952;9.442;2022-12-07T15:44:52;19.63;;;12.37;;
9827;SDS011;4953;48.952;9.442;2022-12-07T15:47:30;17.63;;;11.97;;
9827;SDS011;4953;48.952;9.442;2022-12-07T15:49:58;22.80;;;13.03;;
9827;SDS011;4953;48.952;9.442;2022-12-07T15:52:25;19.50;;;12.00;;
9827;SDS011;4953;48.952;9.442;2022-12-07T15:54:52;19.10;;;11.60;;
9827;SDS011;4953;48.952;9.442;2022-12-07T15:57:19;16.40;;;11.00;;
9827;SDS011;4953;48.952;9.442;2022-12-07T15:59:46;17.63;;;12.20;;
9827;SDS011;4953;48.952;9.442;2022-12-07T16:02:15;18.60;;;10.63;;
9827;SDS011;4953;48.952;9.442;2022-12-07T16:04:42;19.47;;;12.00;;
9827;SDS011;4953;48.952;9.442;2022-12-07T16:07:10;20.37;;;11.77;;
9827;SDS011;4953;48.952;9.442;2022-12-07T16:09:39;23.30;;;12.87;;
9827;SDS011;4953;48.952;9.442;2022-12-07T16:12:06;24.50;;;13.90;;
9827;SDS011;4953;48.952;9.442;2022-12-07T16:14:34;28.27;;;15.67;;
9827;SDS011;4953;48.952;9.442;2022-12-07T16:17:01;26.13;;;14.80;;
9827;SDS011;4953;48.952;9.442;2022-12-07T16:19:30;26.43;;;14.83;;
9827;SDS011;4953;48.952;9.442;2022-12-07T16:21:58;28.23;;;14.70;;
9827;SDS011;4953;48.952;9.442;2022-12-07T16:24:25;26.53;;;15.00;;
9827;SDS011;4953;48.952;9.442;2022-12-07T16:26:52;21.77;;;14.73;;
9827;SDS011;4953;48.952;9.442;2022-12-07T16:29:20;31.20;;;16.50;;
9827;SDS011;4953;48.952;9.442;2022-12-07T16:31:48;33.50;;;16.60;;
9827;SDS011;4953;48.952;9.442;2022-12-07T16:34:17;29.33;;;17.30;;
9827;SDS011;4953;48.952;9.442;2022-12-07T16:36:46;31.93;;;17.00;;
9827;SDS011;4953;48.952;9.442;2022-12-07T16:39:13;30.30;;;16.97;;
9827;SDS011;4953;48.952;9.442;2022-12-07T16:41:40;32.63;;;17.60;;
9827;SDS011;4953;48.952;9.442;2022-12-07T16:44:09;25.73;;;15.43;;
9827;SDS011;4953;48.952;9.442;2022-12-07T16:46:38;28.03;;;15.33;;
9827;SDS011;4953;48.952;9.442;2022-12-07T16:49:06;31.93;;;16.53;;
9827;SDS011;4953;48.952;9.442;2022-12-07T16:51:37;35.87;;;18.80;;
9827;SDS011;4953;48.952;9.442;2022-12-07T16:54:05;31.03;;;17.50;;
9827;SDS011;4953;48.952;9.442;2022-12-07T16:56:32;43.87;;;26.23;;
9827;SDS011;4953;48.952;9.442;2022-12-07T16:58:59;35.33;;;17.87;;
9827;SDS011;4953;48.952;9.442;2022-12-07T17:01:26;34.47;;;18.00;;
9827;SDS011;4953;48.952;9.442;2022-12-07T17:03:54;26.63;;;17.47;;
9827;SDS011;4953;48.952;9.442;2022-12-07T17:06:24;32.57;;;17.50;;
9827;SDS011;4953;48.952;9.442;2022-12-07T17:08:53;34.00;;;18.63;;
9827;SDS011;4953;48.952;9.442;2022-12-07T17:11:24;31.00;;;16.73;;
9827;SDS011;4953;48.952;9.442;2022-12-07T17:13:53;37.73;;;17.80;;
9827;SDS011;4953;48.952;9.442;2022-12-07T17:16:38;34.80;;;19.20;;
9827;SDS011;4953;48.952;9.442;2022-12-07T17:19:05;33.63;;;19.13;;
9827;SDS011;4953;48.952;9.442;2022-12-07T17:21:35;38.63;;;22.33;;
9827;SDS011;4953;48.952;9.442;2022-12-07T17:24:04;35.93;;;21.60;;
9827;SDS011;4953;48.952;9.442;2022-12-07T17:26:34;35.90;;;19.67;;
9827;SDS011;4953;48.952;9.442;2022-12-07T17:29:01;59.63;;;33.00;;
9827;SDS011;4953;48.952;9.442;2022-12-07T17:31:31;44.67;;;26.60;;
9827;SDS011;4953;48.952;9.442;2022-12-07T17:33:58;45.53;;;26.20;;
9827;SDS011;4953;48.952;9.442;2022-12-07T17:36:26;33.13;;;16.80;;
9827;SDS011;4953;48.952;9.442;2022-12-07T17:38:55;31.10;;;17.80;;
9827;SDS011;4953;48.952;9.442;2022-12-07T17:41:24;32.47;;;16.30;;
9827;SDS011;4953;48.952;9.442;2022-12-07T17:44:12;35.30;;;18.43;;
9827;SDS011;4953;48.952;9.442;2022-12-07T17:46:43;28.60;;;16.40;;
9827;SDS011;4953;48.952;9.442;2022-12-07T17:49:11;30.40;;;16.47;;
9827;SDS011;4953;48.952;9.442;2022-12-07T17:51:38;31.97;;;16.50;;
9827;SDS011;4953;48.952;9.442;2022-12-07T17:54:23;44.17;;;25.97;;
9827;SDS011;4953;48.952;9.442;2022-12-07T17:56:50;30.70;;;16.50;;
9827;SDS011;4953;48.952;9.442;2022-12-07T17:59:18;35.60;;;19.23;;
9827;SDS011;4953;48.952;9.442;2022-12-07T18:01:45;34.83;;;18.80;;
9827;SDS011;4953;48.952;9.442;2022-12-07T18:04:12;31.20;;;19.80;;
9827;SDS011;4953;48.952;9.442;2022-12-07T18:06:39;39.50;;;23.20;;
9827;SDS011;4953;48.952;9.442;2022-12-07T18:09:07;43.63;;;25.00;;
9827;SDS011;4953;48.952;9.442;2022-12-07T18:11:34;38.63;;;21.67;;
9827;SDS011;4953;48.952;9.442;2022-12-07T18:14:02;32.90;;;18.50;;
9827;SDS011;4953;48.952;9.442;2022-12-07T18:16:31;32.20;;;17.67;;
9827;SDS011;4953;48.952;9.442;2022-12-07T18:18:59;28.63;;;17.40;;
9827;SDS011;4953;48.952;9.442;2022-12-07T18:21:28;31.03;;;16.27;;
9827;SDS011;4953;48.952;9.442;2022-12-07T18:23:57;27.07;;;16.80;;
9827;SDS011;4953;48.952;9.442;2022-12-07T18:26:27;30.13;;;16.17;;
9827;SDS011;4953;48.952;9.442;2022-12-07T18:28:57;29.80;;;17.10;;
9827;SDS011;4953;48.952;9.442;2022-12-07T18:31:25;35.33;;;17.53;;
9827;SDS011;4953;48.952;9.442;2022-12-07T18:33:54;26.60;;;16.20;;
9827;SDS011;4953;48.952;9.442;2022-12-07T18:36:26;30.60;;;16.10;;
9827;SDS011;4953;48.952;9.442;2022-12-07T18:38:53;27.87;;;16.77;;
9827;SDS011;4953;48.952;9.442;2022-12-07T18:41:21;33.87;;;20.13;;
9827;SDS011;4953;48.952;9.442;2022-12-07T18:43:47;30.60;;;17.03;;
9827;SDS011;4953;48.952;9.442;2022-12-07T18:46:15;23.87;;;15.40;;
9827;SDS011;4953;48.952;9.442;2022-12-07T18:48:44;30.10;;;17.23;;
9827;SDS011;4953;48.952;9.442;2022-12-07T18:51:15;33.00;;;19.63;;
9827;SDS011;4953;48.952;9.442;2022-12-07T18:53:44;23.50;;;15.17;;
9827;SDS011;4953;48.952;9.442;2022-12-07T18:56:12;29.63;;;15.80;;
9827;SDS011;4953;48.952;9.442;2022-12-07T18:58:42;26.73;;;17.13;;
9827;SDS011;4953;48.952;9.442;2022-12-07T19:01:32;24.73;;;15.40;;
9827;SDS011;4953;48.952;9.442;2022-12-07T19:04:00;25.77;;;15.70;;
9827;SDS011;4953;48.952;9.442;2022-12-07T19:06:29;23.00;;;14.63;;
9827;SDS011;4953;48.952;9.442;2022-12-07T19:08:56;26.20;;;15.63;;
9827;SDS011;4953;48.952;9.442;2022-12-07T19:11:24;25.07;;;15.53;;
9827;SDS011;4953;48.952;9.442;2022-12-07T19:14:12;23.13;;;14.70;;
9827;SDS011;4953;48.952;9.442;2022-12-07T19:16:42;25.73;;;16.00;;
9827;SDS011;4953;48.952;9.442;2022-12-07T19:19:10;27.73;;;15.87;;
9827;SDS011;4953;48.952;9.442;2022-12-07T19:21:38;26.73;;;16.23;;
9827;SDS011;4953;48.952;9.442;2022-12-07T19:24:06;27.20;;;16.00;;
9827;SDS011;4953;48.952;9.442;2022-12-07T19:26:34;32.57;;;18.70;;
9827;SDS011;4953;48.952;9.442;2022-12-07T19:29:01;31.97;;;19.93;;
9827;SDS011;4953;48.952;9.442;2022-12-07T19:31:28;26.60;;;16.97;;
9827;SDS011;4953;48.952;9.442;2022-12-07T19:33:55;32.23;;;18.10;;
9827;SDS011;4953;48.952;9.442;2022-12-07T19:36:22;32.70;;;18.67;;
9827;SDS011;4953;48.952;9.442;2022-12-07T19:38:51;30.83;;;18.30;;
9827;SDS011;4953;48.952;9.442;2022-12-07T19:41:18;35.50;;;21.10;;
9827;SDS011;4953;48.952;9.442;2022-12-07T19:44:02;37.50;;;20.40;;
9827;SDS011;4953;48.952;9.442;2022-12-07T19:46:32;35.50;;;19.30;;
9827;SDS011;4953;48.952;9.442;2022-12-07T19:48:59;28.90;;;17.37;;
9827;SDS011;4953;48.952;9.442;2022-12-07T19:51:27;30.93;;;17.27;;
9827;SDS011;4953;48.952;9.442;2022-12-07T19:53:57;31.93;;;17.43;;
9827;SDS011;4953;48.952;9.442;2022-12-07T19:56:27;29.33;;;17.93;;
9827;SDS011;4953;48.952;9.442;2022-12-07T19:58:57;27.37;;;17.20;;
9827;SDS011;4953;48.952;9.442;2022-12-07T20:01:26;27.97;;;16.67;;
9827;SDS011;4953;48.952;9.442;2022-12-07T20:03:54;28.23;;;16.03;;
9827;SDS011;4953;48.952;9.442;2022-12-07T20:06:22;28.20;;;16.50;;
9827;SDS011;4953;48.952;9.442;2022-12-07T20:08:49;23.70;;;14.70;;
9827;SDS011;4953;48.952;9.442;2022-12-07T20:11:18;25.63;;;15.20;;
9827;SDS011;4953;48.952;9.442;2022-12-07T20:14:04;24.23;;;14.70;;
9827;SDS011;4953;48.952;9.442;2022-12-07T20:16:32;25.53;;;15.23;;
9827;SDS011;4953;48.952;9.442;2022-12-07T20:19:00;25.57;;;15.57;;
9827;SDS011;4953;48.952;9.442;2022-12-07T20:21:27;32.30;;;16.93;;
9827;SDS011;4953;48.952;9.442;2022-12-07T20:23:54;24.33;;;15.03;;
9827;SDS011;4953;48.952;9.442;2022-12-07T20:26:22;27.80;;;16.27;;
9827;SDS011;4953;48.952;9.442;2022-12-07T20:28:49;30.87;;;18.50;;
9827;SDS011;4953;48.952;9.442;2022-12-07T20:31:16;32.20;;;16.97;;
9827;SDS011;4953;48.952;9.442;2022-12-07T20:33:44;28.67;;;17.70;;
9827;SDS011;4953;48.952;9.442;2022-12-07T20:36:11;28.40;;;17.63;;
9827;SDS011;4953;48.952;9.442;2022-12-07T20:38:40;32.93;;;18.13;;
9827;SDS011;4953;48.952;9.442;2022-12-07T20:41:09;33.60;;;18.07;;
9827;SDS011;4953;48.952;9.442;2022-12-07T20:43:53;28.47;;;17.30;;
9827;SDS011;4953;48.952;9.442;2022-12-07T20:46:21;33.40;;;17.90;;
9827;SDS011;4953;48.952;9.442;2022-12-07T20:48:48;30.73;;;17.80;;